Hixson, Tennessee
Current Conditions -  °F | °C
As of 2:53 PM on Wednesday 28 Jan 2015 (Local Time) from KCHA Reporting Station
Scattered Clouds Scattered Clouds  
Wind Chill: 44°   Ceiling: Unl
Heat Index: 47°   Visibility: 10mi
Dew Point: 17°   Wind: 7mph
Humidity: 30%   Direction: 350°N
Pressure: 30.27"   Gusts: NA
Location:  35.14°N, 85.23°W
Report Text: KCHA 281953Z 35006KT 10SM SCT150 SCT250 08/M08 A3027 RMK AO2 SLP252 T00831083
Loading
Personal Weather Stations






























Interactive Weather Map New forecast layout! Learn more

10-Day Weather Forecast

Advertisements
Track Severe Weather on mobile